sensor_id;sensor_type;location;lat;lon;timestamp;pressure;altitude;pressure_sealevel;temperature;humidity
46382;BME280;66809;52.974;-2.514;2023-02-15T00:01:49;1018.0532209669346;;;1.6222560174912888;42.961881430326315
46382;BME280;66809;52.974;-2.514;2023-02-15T00:03:50;1018.0339336459969;;;1.6251656262257448;42.96883025343168
46382;BME280;66809;52.974;-2.514;2023-02-15T00:05:49;1018.0159719524557;;;1.6356988633030576;42.99603646069235
46382;BME280;66809;52.974;-2.514;2023-02-15T00:07:49;1017.998825170337;;;1.6524063782586578;43.01062061644925
46382;BME280;66809;52.974;-2.514;2023-02-15T00:09:49;1017.9813951719368;;;1.6657428771066731;43.028199149656196
46382;BME280;66809;52.974;-2.514;2023-02-15T00:11:49;1017.9627360401028;;;1.6861880879499358;43.05196626716171
46382;BME280;66809;52.974;-2.514;2023-02-15T00:13:49;1017.9425802280043;;;1.7081160168852618;43.074590976818676
46382;BME280;66809;52.974;-2.514;2023-02-15T00:15:49;1017.9229231652841;;;1.7241245082912693;43.0869816556009
46382;BME280;66809;52.974;-2.514;2023-02-15T00:17:49;1017.9028864830561;;;1.7508135218064573;43.09667843349083
46382;BME280;66809;52.974;-2.514;2023-02-15T00:19:49;1017.8848381908964;;;1.7671540876958862;43.09248522366726
46382;BME280;66809;52.974;-2.514;2023-02-15T00:21:49;1017.8653551423693;;;1.787460310980768;43.08558789355344
46382;BME280;66809;52.974;-2.514;2023-02-15T00:23:50;1017.8463203496283;;;1.8100409536744935;43.07096674924096
46382;BME280;66809;52.974;-2.514;2023-02-15T00:25:50;1017.8282972318906;;;1.8273045175185731;43.05353870089163
46382;BME280;66809;52.974;-2.514;2023-02-15T00:27:49;1017.8112301444003;;;1.8413014633985343;43.03309536100198
46382;BME280;66809;52.974;-2.514;2023-02-15T00:29:49;1017.7945914815101;;;1.85363745225055;43.003849909486206
46382;BME280;66809;52.974;-2.514;2023-02-15T00:31:49;1017.7770338393847;;;1.8645107733954662;42.978818879833405
46382;BME280;66809;52.974;-2.514;2023-02-15T00:33:49;1017.759740170596;;;1.8725622613279111;42.97093008800994
46382;BME280;66809;52.974;-2.514;2023-02-15T00:35:56;1017.7417625822205;;;1.8722301924441431;42.96552573339237
46382;BME280;66809;52.974;-2.514;2023-02-15T00:37:49;1017.7235148526993;;;1.8598043851482042;42.979690568865905
46382;BME280;66809;52.974;-2.514;2023-02-15T00:39:49;1017.7039630996188;;;1.8503906295928225;43.01137352615321
46382;BME280;66809;52.974;-2.514;2023-02-15T00:41:49;1017.6816098525697;;;1.8431431798523432;43.059622311876836
46382;BME280;66809;52.974;-2.514;2023-02-15T00:43:49;1017.6568370575914;;;1.837935373050247;43.13394148682781
46382;BME280;66809;52.974;-2.514;2023-02-15T00:45:49;1017.6308498766198;;;1.8169841943267262;43.20977248130631
46382;BME280;66809;52.974;-2.514;2023-02-15T00:47:49;1017.6033738283054;;;1.8143133817019312;43.283872120127484
46382;BME280;66809;52.974;-2.514;2023-02-15T00:49:49;1017.5756311153096;;;1.8056381739665965;43.35854026009792
46382;BME280;66809;52.974;-2.514;2023-02-15T00:51:49;1017.5462608028735;;;1.7836521798771714;43.43118007623714
46382;BME280;66809;52.974;-2.514;2023-02-15T00:53:49;1017.5154336873054;;;1.7694513861203118;43.50168082694188
46382;BME280;66809;52.974;-2.514;2023-02-15T00:55:49;1017.4841291084077;;;1.754203433254127;43.56303533493691
46382;BME280;66809;52.974;-2.514;2023-02-15T00:57:49;1017.4528105182352;;;1.740947885451752;43.62286488865979
46382;BME280;66809;52.974;-2.514;2023-02-15T00:59:49;1017.420512919697;;;1.7279857866006796;43.67373948999739
46382;BME280;66809;52.974;-2.514;2023-02-15T01:01:48;1017.3862236750258;;;1.7311500842403456;43.71951134633505
46382;BME280;66809;52.974;-2.514;2023-02-15T01:03:49;1017.3523144977261;;;1.7228924983744272;43.75939430365931
46382;BME280;66809;52.974;-2.514;2023-02-15T01:05:49;1017.3163708839622;;;1.7135330809999982;43.77498333497329
46382;BME280;66809;52.974;-2.514;2023-02-15T01:07:49;1017.2786220250946;;;1.6962887047643056;43.80301475979779
46382;BME280;66809;52.974;-2.514;2023-02-15T01:09:49;1017.2403776511945;;;1.6872613584356082;43.835857356873404
46382;BME280;66809;52.974;-2.514;2023-02-15T01:11:49;1017.2018952969022;;;1.6719438837442058;43.86357475497721
46382;BME280;66809;52.974;-2.514;2023-02-15T01:13:49;1017.1639344592515;;;1.655220914252203;43.88501303869167
46382;BME280;66809;52.974;-2.514;2023-02-15T01:15:53;1017.1259410216095;;;1.6373395684312233;43.918114215176026
46382;BME280;66809;52.974;-2.514;2023-02-15T01:17:49;1017.0880340609781;;;1.6153498415877323;43.95437571528292
46382;BME280;66809;52.974;-2.514;2023-02-15T01:19:49;1017.047284577056;;;1.6009368065921736;43.99709136210169
46382;BME280;66809;52.974;-2.514;2023-02-15T01:21:49;1017.0085660218006;;;1.5753252322111708;44.04816832573317
46382;BME280;66809;52.974;-2.514;2023-02-15T01:23:49;1016.9691563401825;;;1.5429910854551283;44.1074128168339
46382;BME280;66809;52.974;-2.514;2023-02-15T01:25:49;1016.930206051496;;;1.513626377106799;44.16482944389255
46382;BME280;66809;52.974;-2.514;2023-02-15T01:27:50;1016.8905798519319;;;1.4878489146107812;44.2360226976786
46382;BME280;66809;52.974;-2.514;2023-02-15T01:29:49;1016.8525022490669;;;1.4664778947729926;44.310914035617095
46382;BME280;66809;52.974;-2.514;2023-02-15T01:31:49;1016.8163446783288;;;1.4401249630127337;44.38823573280062
46382;BME280;66809;52.974;-2.514;2023-02-15T01:33:49;1016.7798741367052;;;1.42242524837075;44.44831763812009
46382;BME280;66809;52.974;-2.514;2023-02-15T01:35:49;1016.7439851347532;;;1.4071117906791037;44.50389195115141
46382;BME280;66809;52.974;-2.514;2023-02-15T01:37:49;1016.7085452537123;;;1.3996644737244395;44.54204020293849
46382;BME280;66809;52.974;-2.514;2023-02-15T01:39:49;1016.6734563952045;;;1.3835321705620693;44.56583363399732
46382;BME280;66809;52.974;-2.514;2023-02-15T01:41:49;1016.6397305814729;;;1.3819076473924556;44.578548888582866
46382;BME280;66809;52.974;-2.514;2023-02-15T01:43:52;1016.6083764428696;;;1.3716135659461086;44.561228074922475
46382;BME280;66809;52.974;-2.514;2023-02-15T01:45:50;1016.5769864529487;;;1.3647482734743726;44.53834796957482
46382;BME280;66809;52.974;-2.514;2023-02-15T01:47:52;1016.5445942426711;;;1.3446108106088301;44.516137612129995
46382;BME280;66809;52.974;-2.514;2023-02-15T01:49:57;1016.5119685405937;;;1.333668050445629;44.49881240728998
46382;BME280;66809;52.974;-2.514;2023-02-15T01:51:50;1016.4808788346074;;;1.3239454421917327;44.484097188970416
46382;BME280;66809;52.974;-2.514;2023-02-15T01:53:52;1016.4517856267898;;;1.316114844908158;44.468241394802156
46382;BME280;66809;52.974;-2.514;2023-02-15T01:55:52;1016.4237283555625;;;1.3069250900711815;44.446597640908074
46382;BME280;66809;52.974;-2.514;2023-02-15T01:57:49;1016.3954429502643;;;1.3078953446816244;44.426378908161645
46382;BME280;66809;52.974;-2.514;2023-02-15T01:59:53;1016.366529689887;;;1.2943887181264562;44.41009534760868
46382;BME280;66809;52.974;-2.514;2023-02-15T02:01:50;1016.3375112580468;;;1.2800943959362574;44.398623106790296
46382;BME280;66809;52.974;-2.514;2023-02-15T02:03:59;1016.3085536111013;;;1.268344786981064;44.39493959739801
46382;BME280;66809;52.974;-2.514;2023-02-15T02:05:49;1016.2810128493636;;;1.2493588991306661;44.39204088598147
46382;BME280;66809;52.974;-2.514;2023-02-15T02:07:52;1016.2545439821456;;;1.2403899989947582;44.37615223743938
46382;BME280;66809;52.974;-2.514;2023-02-15T02:09:49;1016.2288786417739;;;1.2285514235707464;44.3467838206228
46382;BME280;66809;52.974;-2.514;2023-02-15T02:11:49;1016.2039733237144;;;1.2168827435675789;44.31934368354821
46382;BME280;66809;52.974;-2.514;2023-02-15T02:13:49;1016.1786537409603;;;1.2073609159672438;44.28537004323458
46382;BME280;66809;52.974;-2.514;2023-02-15T02:15:55;1016.1520443885893;;;1.2073386720552803;44.24697465820907
46382;BME280;66809;52.974;-2.514;2023-02-15T02:17:59;1016.1257479395824;;;1.2005042717519077;44.21244325027799
46382;BME280;66809;52.974;-2.514;2023-02-15T02:20:08;1016.0996716778478;;;1.1920589624018354;44.17407469671181
46382;BME280;66809;52.974;-2.514;2023-02-15T02:22:19;1016.0720548606273;;;1.1925494958717984;44.13003179986209
46382;BME280;66809;52.974;-2.514;2023-02-15T02:24:02;1016.0439653444625;;;1.192201984266739;44.07619432980026
46382;BME280;66809;52.974;-2.514;2023-02-15T02:30:45;1015.5028128113406;;;1.7770817112181712;43.10785883712583
46382;BME280;66809;52.974;-2.514;2023-02-15T02:32:50;1015.494504049614;;;1.682120819698826;43.109294201858376
46382;BME280;66809;52.974;-2.514;2023-02-15T02:34:37;1015.4816601788593;;;1.6268354364787563;43.109468425382374
46382;BME280;66809;52.974;-2.514;2023-02-15T02:36:37;1015.4689263700811;;;1.5862212510947316;43.09835646133085
46382;BME280;66809;52.974;-2.514;2023-02-15T02:38:43;1015.4594295883962;;;1.5510327610575176;43.099762581185566
46382;BME280;66809;52.974;-2.514;2023-02-15T02:40:43;1015.4538004303269;;;1.5274622689937083;43.08410667910204
46382;BME280;66809;52.974;-2.514;2023-02-15T02:42:36;1015.4465153523925;;;1.5060210325867667;43.07663233254425
46382;BME280;66809;52.974;-2.514;2023-02-15T02:44:38;1015.4366642541144;;;1.482545992077654;43.07267517220344
46382;BME280;66809;52.974;-2.514;2023-02-15T02:46:37;1015.425249390219;;;1.4573203511465598;43.07307180215
46382;BME280;66809;52.974;-2.514;2023-02-15T02:48:33;1015.4095751820346;;;1.4353927117467498;43.071613591994456
46382;BME280;66809;52.974;-2.514;2023-02-15T02:50:32;1015.3935173057599;;;1.4139324711862986;43.07371434213258
46382;BME280;66809;52.974;-2.514;2023-02-15T02:52:37;1015.3754469156725;;;1.3859115086985363;43.093504651816524
46382;BME280;66809;52.974;-2.514;2023-02-15T02:54:34;1015.3592592767723;;;1.368896580106497;43.11646457405192
46382;BME280;66809;52.974;-2.514;2023-02-15T02:56:37;1015.343493957891;;;1.3446683226868554;43.14648975679473
46382;BME280;66809;52.974;-2.514;2023-02-15T02:58:37;1015.3272966232375;;;1.3340510038174234;43.168608179283574
46382;BME280;66809;52.974;-2.514;2023-02-15T03:00:36;1015.3118613793871;;;1.3152464806089441;43.18203372722903
46382;BME280;66809;52.974;-2.514;2023-02-15T03:02:36;1015.2988450340421;;;1.3036675239535673;43.18540984810862
46382;BME280;66809;52.974;-2.514;2023-02-15T03:04:36;1015.2852553880142;;;1.289968344054356;43.18165288965025
46382;BME280;66809;52.974;-2.514;2023-02-15T03:06:37;1015.272065994613;;;1.2806826716805466;43.1695466069177
46382;BME280;66809;52.974;-2.514;2023-02-15T03:08:36;1015.2592441248017;;;1.2787817233621526;43.1543825387488
46382;BME280;66809;52.974;-2.514;2023-02-15T03:10:35;1015.2484101280087;;;1.274725432171371;43.13189428643805
46382;BME280;66809;52.974;-2.514;2023-02-15T03:12:35;1015.2391166037613;;;1.2730604940907468;43.10792514132572
46382;BME280;66809;52.974;-2.514;2023-02-15T03:14:32;1015.2304686890312;;;1.2725489202443625;43.085514080579294
46382;BME280;66809;52.974;-2.514;2023-02-15T03:16:33;1015.2218058078997;;;1.2783853554918931;43.05834454613956
46382;BME280;66809;52.974;-2.514;2023-02-15T03:18:36;1015.2035593009149;;;1.0953127642285838;43.02724345608836
46382;BME280;66809;52.974;-2.514;2023-02-15T03:20:35;1015.1825310126619;;;1.1150223994948836;42.996424513257736
46382;BME280;66809;52.974;-2.514;2023-02-15T03:22:36;1015.1610441862108;;;1.130294694730584;42.96087948459079
46382;BME280;66809;52.974;-2.514;2023-02-15T03:24:35;1015.1391731131188;;;1.1446016789123865;42.92889708114827
46382;BME280;66809;52.974;-2.514;2023-02-15T03:26:34;1015.1164725095265;;;1.1638325196520043;42.894703439562164
46382;BME280;66809;52.974;-2.514;2023-02-15T03:28:36;1015.0926332807364;;;1.1763515952753996;42.85772045698799
46382;BME280;66809;52.974;-2.514;2023-02-15T03:30:34;1015.0705905671183;;;1.175243265439366;42.82680216353146
46382;BME280;66809;52.974;-2.514;2023-02-15T03:32:34;1015.0483942740908;;;1.1910366736513724;42.792824312822766
46382;BME280;66809;52.974;-2.514;2023-02-15T03:34:32;1015.0264926390781;;;1.1991452852617919;42.75682185084656
46382;BME280;66809;52.974;-2.514;2023-02-15T03:36:39;1015.0030081158025;;;1.2031069204131675;42.7200281648791
46382;BME280;66809;52.974;-2.514;2023-02-15T03:38:37;1014.9782306218113;;;1.2068523252107184;42.68420111190637
46382;BME280;66809;52.974;-2.514;2023-02-15T03:40:36;1014.9509256421267;;;1.2042381101680846;42.65886555825606
46382;BME280;66809;52.974;-2.514;2023-02-15T03:42:35;1014.9222106276734;;;1.2092036701118507;42.62862865728527
46382;BME280;66809;52.974;-2.514;2023-02-15T03:44:39;1014.8939951559659;;;1.2177447410006796;42.5949396630518
46382;BME280;66809;52.974;-2.514;2023-02-15T03:46:37;1014.8660896215771;;;1.228154650138797;42.55441906420059
46382;BME280;66809;52.974;-2.514;2023-02-15T03:48:36;1014.8415808923896;;;1.2336799328953274;42.516016790812
46382;BME280;66809;52.974;-2.514;2023-02-15T03:50:35;1014.8178905071861;;;1.2404717013752413;42.47608082839271
46382;BME280;66809;52.974;-2.514;2023-02-15T03:52:34;1014.7963127693766;;;1.2530630453486575;42.425489083403335
46382;BME280;66809;52.974;-2.514;2023-02-15T03:54:35;1014.7738301870342;;;1.2610230375166263;42.37157229288473
46382;BME280;66809;52.974;-2.514;2023-02-15T03:56:35;1014.7512382441976;;;1.2752042539620374;42.30861985821441
46382;BME280;66809;52.974;-2.514;2023-02-15T03:58:32;1014.7280468783267;;;1.2809324559552622;42.247463283040425
46382;BME280;66809;52.974;-2.514;2023-02-15T04:00:37;1014.7036872619458;;;1.2986972379407902;42.18957093501855
46382;BME280;66809;52.974;-2.514;2023-02-15T04:02:37;1014.6758565384615;;;1.3019975082920447;42.13790533792538
46382;BME280;66809;52.974;-2.514;2023-02-15T04:04:35;1014.6482866252607;;;1.3088315919163034;42.088832273309734
46382;BME280;66809;52.974;-2.514;2023-02-15T04:06:33;1014.6206007509903;;;1.3173840881799568;42.04822098243988
46382;BME280;66809;52.974;-2.514;2023-02-15T04:08:32;1014.5935688623283;;;1.3241057398341662;42.012222274387746
46382;BME280;66809;52.974;-2.514;2023-02-15T04:10:33;1014.5655544258295;;;1.3303068950258645;41.98728781344893
46382;BME280;66809;52.974;-2.514;2023-02-15T04:12:33;1014.536207753048;;;1.3331410470571432;41.96754308022121
46382;BME280;66809;52.974;-2.514;2023-02-15T04:14:32;1014.5047889185099;;;1.3437140559379712;41.94789237282678
46382;BME280;66809;52.974;-2.514;2023-02-15T04:16:32;1014.4717672355732;;;1.332801257601205;41.937858003374885
46382;BME280;66809;52.974;-2.514;2023-02-15T04:18:34;1014.4379328667922;;;1.326291202576254;41.93079677013195
46382;BME280;66809;52.974;-2.514;2023-02-15T04:20:33;1014.4056868168793;;;1.313876539573706;41.93037491695995
46382;BME280;66809;52.974;-2.514;2023-02-15T04:22:32;1014.3724353636401;;;1.305374088243809;41.93785662382395
46382;BME280;66809;52.974;-2.514;2023-02-15T04:24:33;1014.3399402438831;;;1.299756761191176;41.94812539332129
46382;BME280;66809;52.974;-2.514;2023-02-15T04:26:33;1014.3074475065374;;;1.2936297487950907;41.960512552222994
46382;BME280;66809;52.974;-2.514;2023-02-15T04:28:32;1014.274376284911;;;1.283582800274676;41.973093578251564
46382;BME280;66809;52.974;-2.514;2023-02-15T04:30:33;1014.2433425657115;;;1.2794707336198092;41.98163436186591
46382;BME280;66809;52.974;-2.514;2023-02-15T04:32:33;1014.2139130929344;;;1.2651640617676578;41.992767008295566
46382;BME280;66809;52.974;-2.514;2023-02-15T04:34:32;1014.1858023590988;;;1.253441330988082;42.00370419437422
46382;BME280;66809;52.974;-2.514;2023-02-15T04:36:33;1014.1598018696205;;;1.243417551524231;42.01946669845378
46382;BME280;66809;52.974;-2.514;2023-02-15T04:38:32;1014.1344470675141;;;1.234583034708215;42.03185960680164
46382;BME280;66809;52.974;-2.514;2023-02-15T04:40:32;1014.1113876621893;;;1.2309729312931945;42.03558396245913
46382;BME280;66809;52.974;-2.514;2023-02-15T04:42:33;1014.0914398488052;;;1.2281705987349547;42.04074281208416
46382;BME280;66809;52.974;-2.514;2023-02-15T04:44:33;1014.0722391494456;;;1.2146948661280972;42.049650139907236
46382;BME280;66809;52.974;-2.514;2023-02-15T04:46:33;1014.0536630830833;;;1.2094136183333783;42.061547114838184
46382;BME280;66809;52.974;-2.514;2023-02-15T04:48:32;1014.0332578146738;;;1.198861006956489;42.07247302572416
46382;BME280;66809;52.974;-2.514;2023-02-15T04:50:33;1014.0127356656333;;;1.1882002808194627;42.0833018894292
46382;BME280;66809;52.974;-2.514;2023-02-15T04:52:33;1013.993077507725;;;1.1750065847624802;42.09383107580579
46382;BME280;66809;52.974;-2.514;2023-02-15T04:54:32;1013.9737678057585;;;1.1647675115027925;42.1057057454115
46382;BME280;66809;52.974;-2.514;2023-02-15T04:56:33;1013.954575556098;;;1.1583943124974463;42.117295113641724
46382;BME280;66809;52.974;-2.514;2023-02-15T04:58:33;1013.9380527897996;;;1.146726585138921;42.13311663337444
46382;BME280;66809;52.974;-2.514;2023-02-15T05:00:32;1013.9231839886542;;;1.1376891356063221;42.14883986226511
46382;BME280;66809;52.974;-2.514;2023-02-15T05:02:32;1013.9093651379607;;;1.1257968436198487;42.16735566839163
46382;BME280;66809;52.974;-2.514;2023-02-15T05:04:33;1013.8957671731976;;;1.1153532931458907;42.192895188656124
46382;BME280;66809;52.974;-2.514;2023-02-15T05:06:33;1013.8830897530014;;;1.0997897578393494;42.22206751184074
46382;BME280;66809;52.974;-2.514;2023-02-15T05:08:33;1013.8700750589549;;;1.0775583313998658;42.2504599336195
46382;BME280;66809;52.974;-2.514;2023-02-15T05:10:32;1013.8554529216667;;;1.0567240704463776;42.27778741291592
46382;BME280;66809;52.974;-2.514;2023-02-15T05:12:33;1013.8414485484477;;;1.0342532755813667;42.306451733737624
46382;BME280;66809;52.974;-2.514;2023-02-15T05:14:33;1013.829851961142;;;1.010638943440349;42.33741639646199
46382;BME280;66809;52.974;-2.514;2023-02-15T05:16:32;1013.8202714704014;;;0.9971111083317923;42.364725246404234
46382;BME280;66809;52.974;-2.514;2023-02-15T05:18:33;1013.810766620442;;;0.9801582059517233;42.39559451535081
46382;BME280;66809;52.974;-2.514;2023-02-15T05:20:33;1013.8012493441145;;;0.9637489562168465;42.417812584167685
46382;BME280;66809;52.974;-2.514;2023-02-15T05:22:33;1013.7929716604505;;;0.9510125227876808;42.43704546000977
46382;BME280;66809;52.974;-2.514;2023-02-15T05:24:32;1013.7854712393693;;;0.9383563873562594;42.44637805433311
46382;BME280;66809;52.974;-2.514;2023-02-15T05:26:32;1013.7773206753157;;;0.9235611358756654;42.457431018662795
46382;BME280;66809;52.974;-2.514;2023-02-15T05:28:33;1013.7699141390556;;;0.9124541371406298;42.47098875311892
46382;BME280;66809;52.974;-2.514;2023-02-15T05:30:32;1013.76008049593;;;0.8984233925961715;42.4797431991988
46382;BME280;66809;52.974;-2.514;2023-02-15T05:32:33;1013.749263148691;;;0.8827870020438804;42.48877751018748
46382;BME280;66809;52.974;-2.514;2023-02-15T05:34:33;1013.7404071152737;;;0.8683083611500066;42.499164421973134
46382;BME280;66809;52.974;-2.514;2023-02-15T05:36:33;1013.732875736371;;;0.8584523998348708;42.51042069801908
46382;BME280;66809;52.974;-2.514;2023-02-15T05:38:33;1013.7241529578585;;;0.8481948707291845;42.51946025985932
46382;BME280;66809;52.974;-2.514;2023-02-15T05:40:33;1013.7138943413572;;;0.8376438832253014;42.532642510738064
46382;BME280;66809;52.974;-2.514;2023-02-15T05:42:32;1013.7009211994992;;;0.823458695888915;42.544671399408756
46382;BME280;66809;52.974;-2.514;2023-02-15T05:44:32;1013.6888634013632;;;0.8062654435032102;42.55256701971767
46382;BME280;66809;52.974;-2.514;2023-02-15T05:46:33;1013.6779078264138;;;0.7893193114726395;42.55902211265987
46382;BME280;66809;52.974;-2.514;2023-02-15T05:48:33;1013.6702363882176;;;0.7866183815086077;42.56509899958987
46382;BME280;66809;52.974;-2.514;2023-02-15T05:50:32;1013.6624229309485;;;0.7833768814336527;42.57030702249437
46382;BME280;66809;52.974;-2.514;2023-02-15T05:52:33;1013.6533126459908;;;0.7662407702103687;42.57331234335654
46382;BME280;66809;52.974;-2.514;2023-02-15T05:54:33;1013.6454360725389;;;0.7629173971784444;42.57208772871242
46382;BME280;66809;52.974;-2.514;2023-02-15T05:56:33;1013.6396116085976;;;0.7400033116106329;42.5763528536004
46382;BME280;66809;52.974;-2.514;2023-02-15T05:58:34;1013.6312165012982;;;0.7265971429920871;42.5771604985365
46382;BME280;66809;52.974;-2.514;2023-02-15T06:00:32;1013.6198038487488;;;0.7099743978204528;42.576627152456034
46382;BME280;66809;52.974;-2.514;2023-02-15T06:02:33;1013.609629243804;;;0.7081683105163346;42.569557022831894
46382;BME280;66809;52.974;-2.514;2023-02-15T06:04:32;1013.601056193824;;;0.7081769987696781;42.55585184319714
46382;BME280;66809;52.974;-2.514;2023-02-15T06:06:32;1013.5925988147067;;;0.7054207000572633;42.534665240878226
46382;BME280;66809;52.974;-2.514;2023-02-15T06:08:34;1013.5804343630181;;;0.7075561349701042;42.5103990604673
46382;BME280;66809;52.974;-2.514;2023-02-15T06:10:33;1013.5683732205538;;;0.7001462749989565;42.48767285793089
46382;BME280;66809;52.974;-2.514;2023-02-15T06:12:33;1013.5571142042097;;;0.706220153462501;42.45967403401015
46382;BME280;66809;52.974;-2.514;2023-02-15T06:14:32;1013.5439799432994;;;0.6997252192933467;42.42792687317403
46382;BME280;66809;52.974;-2.514;2023-02-15T06:16:33;1013.5300125261998;;;0.6987243671028863;42.398203036398705
46382;BME280;66809;52.974;-2.514;2023-02-15T06:18:33;1013.516317365553;;;0.7014194955260333;42.365306732452645
46382;BME280;66809;52.974;-2.514;2023-02-15T06:20:33;1013.5025224673434;;;0.7102549400732988;42.33538415638569
46382;BME280;66809;52.974;-2.514;2023-02-15T06:22:32;1013.4887027355354;;;0.7067983540653331;42.30709605918623
46382;BME280;66809;52.974;-2.514;2023-02-15T06:24:33;1013.4728478300921;;;0.7005623056314847;42.28149162531448
46382;BME280;66809;52.974;-2.514;2023-02-15T06:26:33;1013.4576015772221;;;0.6983459688286725;42.25550278594507
46382;BME280;66809;52.974;-2.514;2023-02-15T06:28:32;1013.4426362846746;;;0.6919517997948057;42.23392092495924
46382;BME280;66809;52.974;-2.514;2023-02-15T06:30:33;1013.4256592836806;;;0.6861955296631292;42.22175329940708
46382;BME280;66809;52.974;-2.514;2023-02-15T06:32:33;1013.4080379995115;;;0.6862113532386281;42.20670261798129
46382;BME280;66809;52.974;-2.514;2023-02-15T06:34:33;1013.3901221190359;;;0.6823974682173154;42.19817823121612
46382;BME280;66809;52.974;-2.514;2023-02-15T06:36:33;1013.3722784904373;;;0.6724587083035601;42.18754712464464
46382;BME280;66809;52.974;-2.514;2023-02-15T06:38:32;1013.3571108235951;;;0.6686988816526644;42.17623392390724
46382;BME280;66809;52.974;-2.514;2023-02-15T06:40:32;1013.3408095068003;;;0.6534239334680219;42.17096337274118
46382;BME280;66809;52.974;-2.514;2023-02-15T06:42:33;1013.3277586410089;;;0.6370755720630508;42.17040070525722
46382;BME280;66809;52.974;-2.514;2023-02-15T06:44:32;1013.3164727492052;;;0.6326711208568956;42.1743559419109
46382;BME280;66809;52.974;-2.514;2023-02-15T06:46:32;1013.3024296612954;;;0.6200567434005895;42.18206341546091
46382;BME280;66809;52.974;-2.514;2023-02-15T06:48:33;1013.286394860669;;;0.6034998787830299;42.18708124363148
46382;BME280;66809;52.974;-2.514;2023-02-15T06:50:33;1013.2709055352783;;;0.5884566075218665;42.18912631388737
46382;BME280;66809;52.974;-2.514;2023-02-15T06:52:33;1013.2548333648457;;;0.5841994952658613;42.19578334875759
46382;BME280;66809;52.974;-2.514;2023-02-15T06:54:33;1013.2380670869304;;;0.5653413521509629;42.210794262984244
46382;BME280;66809;52.974;-2.514;2023-02-15T06:56:32;1013.2208659822887;;;0.5642514316880746;42.23030951007119
46382;BME280;66809;52.974;-2.514;2023-02-15T06:58:32;1013.2076155630167;;;0.5595427540387916;42.254728807770896
46382;BME280;66809;52.974;-2.514;2023-02-15T07:00:32;1013.1985484204075;;;0.5486545258258299;42.282620780260046
46382;BME280;66809;52.974;-2.514;2023-02-15T07:02:33;1013.1908038426632;;;0.5333811883719849;42.31434850005224
46382;BME280;66809;52.974;-2.514;2023-02-15T07:04:33;1013.1809881026569;;;0.5156082287476161;42.34819768580781
46382;BME280;66809;52.974;-2.514;2023-02-15T07:06:33;1013.1703147478903;;;0.5021175378187406;42.38349377608048
46382;BME280;66809;52.974;-2.514;2023-02-15T07:08:34;1013.1654600094856;;;0.4941674869514164;42.411149987220746
46382;BME280;66809;52.974;-2.514;2023-02-15T07:10:32;1013.1625929306141;;;0.4964156999228917;42.42719392217711
46382;BME280;66809;52.974;-2.514;2023-02-15T07:12:32;1013.1574992059003;;;0.4848465133355877;42.436900680283095
46382;BME280;66809;52.974;-2.514;2023-02-15T07:14:32;1013.1543510228478;;;0.4810918201573804;42.43566288781998